createdAt,value
2019-06-20T00:01:47.658Z,77.80
2019-06-20T00:04:16.200Z,77.90
2019-06-20T00:06:44.781Z,78.10
2019-06-20T00:09:13.264Z,78.20
2019-06-20T00:11:41.816Z,78.40
2019-06-20T00:14:10.318Z,78.30
2019-06-20T00:16:38.799Z,78.30
2019-06-20T00:19:07.285Z,79.50
2019-06-20T00:21:35.840Z,78.40
2019-06-20T00:24:04.820Z,78.50
2019-06-20T00:26:33.365Z,78.70
2019-06-20T00:29:01.850Z,78.50
2019-06-20T00:31:30.438Z,78.50
2019-06-20T00:33:59.096Z,78.50
2019-06-20T00:36:27.578Z,78.50
2019-06-20T00:38:56.108Z,78.70
2019-06-20T00:41:24.646Z,79.40
2019-06-20T00:43:53.207Z,79.20
2019-06-20T00:46:21.809Z,79.50
2019-06-20T00:48:50.316Z,79.30
2019-06-20T00:51:18.799Z,79.20
2019-06-20T00:53:47.300Z,79.10
2019-06-20T00:56:15.776Z,79.50
2019-06-20T00:58:44.253Z,79.60
2019-06-20T01:01:12.813Z,79.60
2019-06-20T01:03:41.357Z,80.00
2019-06-20T01:06:09.873Z,80.20
2019-06-20T01:08:38.361Z,80.30
2019-06-20T01:11:06.989Z,80.40
2019-06-20T01:13:35.563Z,80.60
2019-06-20T01:16:04.735Z,80.80
2019-06-20T01:18:33.328Z,80.80
2019-06-20T01:21:02.093Z,81.00
2019-06-20T01:23:30.641Z,80.80
2019-06-20T01:25:59.121Z,80.70
2019-06-20T01:28:27.638Z,80.70
2019-06-20T01:30:56.132Z,80.60
2019-06-20T01:33:24.672Z,80.50
2019-06-20T01:35:53.180Z,80.40
2019-06-20T01:38:21.652Z,80.40
2019-06-20T01:40:50.145Z,80.30
2019-06-20T01:43:18.723Z,80.10
2019-06-20T01:45:47.294Z,80.00
2019-06-20T01:48:15.771Z,80.10
2019-06-20T01:50:44.237Z,80.20
2019-06-20T01:53:12.755Z,80.30
2019-06-20T01:55:42.003Z,80.40
2019-06-20T01:58:10.467Z,80.50
2019-06-20T02:00:44.524Z,80.70
2019-06-20T02:03:14.382Z,80.80
2019-06-20T02:05:43.218Z,81.10
2019-06-20T02:08:11.741Z,81.50
2019-06-20T02:10:40.210Z,81.60
2019-06-20T02:13:08.842Z,82.60
2019-06-20T02:15:37.410Z,81.90
2019-06-20T02:18:06.020Z,82.20
2019-06-20T02:20:49.618Z,82.20
2019-06-20T02:23:18.156Z,82.40
2019-06-20T02:25:46.702Z,82.50
2019-06-20T02:28:15.905Z,82.60
2019-06-20T02:30:44.491Z,82.50
2019-06-20T02:33:13.015Z,82.60
2019-06-20T02:35:41.596Z,82.60
2019-06-20T02:38:10.141Z,82.60
2019-06-20T02:40:38.679Z,82.70
2019-06-20T02:43:07.336Z,82.80
2019-06-20T02:45:35.982Z,82.80
2019-06-20T02:48:05.864Z,82.90
2019-06-20T02:50:34.549Z,83.00
2019-06-20T02:53:04.893Z,82.90
2019-06-20T02:55:33.513Z,83.00
2019-06-20T02:58:02.170Z,83.00
2019-06-20T03:00:59.563Z,83.20
2019-06-20T03:03:28.971Z,83.10
2019-06-20T03:05:58.581Z,83.00
2019-06-20T03:08:27.725Z,83.20
2019-06-20T03:10:57.173Z,83.70
2019-06-20T03:13:25.726Z,83.00
2019-06-20T03:15:54.230Z,83.00
2019-06-20T03:18:22.707Z,83.00
2019-06-20T03:20:51.253Z,83.10
2019-06-20T03:23:19.831Z,83.00
2019-06-20T03:25:48.475Z,83.10
2019-06-20T03:28:16.943Z,83.00
2019-06-20T03:30:45.532Z,83.00
2019-06-20T03:33:14.011Z,83.00
2019-06-20T03:35:42.502Z,83.00
2019-06-20T03:38:11.017Z,83.00
2019-06-20T03:40:39.515Z,83.00
2019-06-20T03:43:08.045Z,83.00
2019-06-20T03:45:36.624Z,83.00
2019-06-20T03:48:05.261Z,83.00
2019-06-20T03:50:33.905Z,83.10
2019-06-20T03:53:02.439Z,83.20
2019-06-20T03:55:32.744Z,83.30
2019-06-20T03:58:02.090Z,83.30
2019-06-20T04:00:35.322Z,83.30
2019-06-20T04:03:05.787Z,83.40
2019-06-20T04:05:35.003Z,83.40
2019-06-20T04:08:03.631Z,83.40
2019-06-20T04:10:32.129Z,83.50
2019-06-20T04:13:00.601Z,83.40
2019-06-20T04:15:29.076Z,83.50
2019-06-20T04:17:58.409Z,83.40
2019-06-20T04:20:26.891Z,83.30
2019-06-20T04:22:55.365Z,83.30
2019-06-20T04:25:23.873Z,83.30
2019-06-20T04:27:52.365Z,83.10
2019-06-20T04:30:20.846Z,83.00
2019-06-20T04:32:49.385Z,82.80
2019-06-20T04:35:17.890Z,82.70
2019-06-20T04:37:46.413Z,83.50
2019-06-20T04:40:15.951Z,82.70
2019-06-20T04:42:44.431Z,82.60
2019-06-20T04:45:14.726Z,82.70
2019-06-20T04:47:43.969Z,83.40
2019-06-20T04:50:12.521Z,82.60
2019-06-20T04:52:41.094Z,82.40
2019-06-20T04:55:10.312Z,82.30
2019-06-20T04:57:38.858Z,82.20
2019-06-20T05:00:07.911Z,82.10
2019-06-20T05:02:36.446Z,82.20
2019-06-20T05:05:06.928Z,82.00
2019-06-20T05:07:35.438Z,82.00
2019-06-20T05:10:07.068Z,82.00
2019-06-20T05:12:35.541Z,81.80
2019-06-20T05:15:05.735Z,81.90
2019-06-20T05:17:34.241Z,81.90
2019-06-20T05:20:03.045Z,82.00
2019-06-20T05:22:31.702Z,81.90
2019-06-20T05:25:00.189Z,81.70
2019-06-20T05:27:28.805Z,79.70
2019-06-20T05:29:57.385Z,77.80
2019-06-20T05:32:26.058Z,76.00
2019-06-20T05:34:57.418Z,74.50
2019-06-20T05:37:25.961Z,74.70
2019-06-20T05:39:54.536Z,75.20
2019-06-20T05:42:23.181Z,75.90
2019-06-20T05:44:51.673Z,76.50
2019-06-20T05:47:20.164Z,76.40
2019-06-20T05:49:50.395Z,75.70
2019-06-20T05:52:19.942Z,75.20
2019-06-20T05:54:48.858Z,75.00
2019-06-20T05:57:18.352Z,74.10
2019-06-20T05:59:48.159Z,73.40
2019-06-20T06:02:16.914Z,73.60
2019-06-20T06:04:46.355Z,73.00
2019-06-20T06:07:14.961Z,72.90
2019-06-20T06:09:45.547Z,72.00
2019-06-20T06:12:15.081Z,71.60
2019-06-20T06:14:43.929Z,72.10
2019-06-20T06:17:12.544Z,70.90
2019-06-20T06:19:41.767Z,69.10
2019-06-20T06:22:10.531Z,67.90
2019-06-20T06:24:39.091Z,66.00
2019-06-20T06:27:07.673Z,64.90
2019-06-20T06:29:36.186Z,62.10
2019-06-20T06:32:04.968Z,59.10
2019-06-20T06:34:33.684Z,57.00
2019-06-20T06:37:02.552Z,56.70
2019-06-20T06:39:32.031Z,56.80
2019-06-20T06:42:00.595Z,58.20
2019-06-20T06:44:31.671Z,58.00
2019-06-20T06:47:00.228Z,58.80
2019-06-20T06:49:30.406Z,59.70
2019-06-20T06:52:00.646Z,60.40
2019-06-20T06:54:29.426Z,61.60
2019-06-20T06:56:58.247Z,62.00
2019-06-20T06:59:26.795Z,62.60
2019-06-20T07:01:55.464Z,63.90
2019-06-20T07:04:24.361Z,63.90
2019-06-20T07:06:52.983Z,64.60
2019-06-20T07:09:21.504Z,65.50
2019-06-20T07:11:51.840Z,65.70
2019-06-20T07:14:20.576Z,65.20
2019-06-20T07:16:59.916Z,64.80
2019-06-20T07:19:19.442Z,65.20
2019-06-20T07:21:48.013Z,65.60
2019-06-20T07:24:16.653Z,66.30
2019-06-20T07:26:45.368Z,66.80
2019-06-20T07:29:13.898Z,67.00
2019-06-20T07:31:42.594Z,67.20
2019-06-20T07:34:11.147Z,67.20
2019-06-20T07:36:39.738Z,66.80
2019-06-20T07:39:10.434Z,66.30
2019-06-20T07:41:39.022Z,66.00
2019-06-20T07:44:09.362Z,66.20
2019-06-20T07:46:38.077Z,65.60
2019-06-20T07:49:06.622Z,62.80
2019-06-20T07:51:35.215Z,59.40
2019-06-20T07:54:04.807Z,57.90
2019-06-20T07:56:33.926Z,58.40
2019-06-20T07:59:03.183Z,59.00
2019-06-20T08:01:31.911Z,59.70
2019-06-20T08:04:00.415Z,60.40
2019-06-20T08:06:31.688Z,61.20
2019-06-20T08:09:01.626Z,61.30
2019-06-20T08:11:30.215Z,61.10
2019-06-20T08:13:58.895Z,61.30
2019-06-20T08:16:27.673Z,61.60
2019-06-20T08:18:57.369Z,59.60
2019-06-20T08:21:27.587Z,59.20
2019-06-20T08:23:56.204Z,59.00
2019-06-20T08:26:24.844Z,59.10
2019-06-20T08:29:10.413Z,59.30
2019-06-20T08:31:24.930Z,59.50
2019-06-20T08:33:53.507Z,59.70
2019-06-20T08:36:22.089Z,59.60
2019-06-20T08:38:50.685Z,59.50
2019-06-20T08:41:19.350Z,59.20
2019-06-20T08:43:47.992Z,58.50
2019-06-20T08:46:18.083Z,57.30
2019-06-20T08:48:46.960Z,56.20
2019-06-20T08:51:15.563Z,55.10
2019-06-20T08:53:44.183Z,54.30
2019-06-20T08:56:12.912Z,54.50
2019-06-20T08:58:41.540Z,54.30
2019-06-20T09:01:10.127Z,54.30
2019-06-20T09:03:38.789Z,54.80
2019-06-20T09:06:07.778Z,55.30
2019-06-20T09:08:36.587Z,56.00
2019-06-20T09:11:05.285Z,55.60
2019-06-20T09:13:34.372Z,55.70
2019-06-20T09:16:03.159Z,56.00
2019-06-20T09:18:31.705Z,55.90
2019-06-20T09:21:02.138Z,56.20
2019-06-20T09:23:30.864Z,56.40
2019-06-20T09:26:01.991Z,56.30
2019-06-20T09:28:30.666Z,56.40
2019-06-20T09:30:59.368Z,56.60
2019-06-20T09:33:27.938Z,56.50
2019-06-20T09:35:57.488Z,56.70
2019-06-20T09:38:26.393Z,56.50
2019-06-20T09:40:55.045Z,56.10
2019-06-20T09:43:27.496Z,56.80
2019-06-20T09:45:54.506Z,56.30
2019-06-20T09:48:23.261Z,57.10
2019-06-20T09:50:53.022Z,57.60
2019-06-20T09:53:22.487Z,58.00
2019-06-20T09:55:51.781Z,58.00
2019-06-20T09:58:20.744Z,58.10
2019-06-20T10:00:50.779Z,58.20
2019-06-20T10:03:19.667Z,58.90
2019-06-20T10:05:49.334Z,58.20
2019-06-20T10:08:19.135Z,57.90
2019-06-20T10:10:49.319Z,57.90
2019-06-20T10:13:18.500Z,57.50
2019-06-20T10:15:48.012Z,57.70
2019-06-20T10:18:17.716Z,57.30
2019-06-20T10:20:47.253Z,57.50
2019-06-20T10:23:16.356Z,57.70
2019-06-20T10:25:46.256Z,57.60
2019-06-20T10:28:15.532Z,56.70
2019-06-20T10:30:44.745Z,56.80
2019-06-20T10:33:15.024Z,56.20
2019-06-20T10:35:45.123Z,56.30
2019-06-20T10:38:13.837Z,55.90
2019-06-20T10:40:44.761Z,56.30
2019-06-20T10:43:13.023Z,55.10
2019-06-20T10:45:44.032Z,54.80
2019-06-20T10:48:12.828Z,54.80
2019-06-20T10:50:42.604Z,54.20
2019-06-20T10:53:13.005Z,54.30
2019-06-20T10:55:43.226Z,54.00
2019-06-20T10:58:11.909Z,53.30
2019-06-20T11:00:41.752Z,52.70
2019-06-20T11:03:10.793Z,52.30
2019-06-20T11:05:40.913Z,52.60
2019-06-20T11:08:12.184Z,52.40
2019-06-20T11:10:42.197Z,52.00
2019-06-20T11:13:11.505Z,52.60
2019-06-20T11:15:40.614Z,52.40
2019-06-20T11:18:10.691Z,52.50
2019-06-20T11:20:40.873Z,50.90
2019-06-20T11:23:09.558Z,51.50
2019-06-20T11:25:40.339Z,51.70
2019-06-20T11:28:10.458Z,51.90
2019-06-20T11:30:53.027Z,51.70
2019-06-20T11:33:11.195Z,51.30
2019-06-20T11:35:43.491Z,51.90
2019-06-20T11:38:12.321Z,51.70
2019-06-20T11:40:41.649Z,50.90
2019-06-20T11:43:10.290Z,50.60
2019-06-20T11:45:39.066Z,50.70
2019-06-20T11:48:07.749Z,50.90
2019-06-20T11:50:37.785Z,51.10
2019-06-20T11:53:07.068Z,51.10
2019-06-20T11:55:35.733Z,51.10
2019-06-20T11:58:04.560Z,51.10
2019-06-20T12:00:33.246Z,51.10
2019-06-20T12:03:02.004Z,51.00
2019-06-20T12:05:31.848Z,50.70
2019-06-20T12:08:00.500Z,51.10
2019-06-20T12:10:29.136Z,51.10
2019-06-20T12:12:57.693Z,51.30
2019-06-20T12:15:26.351Z,51.20
2019-06-20T12:17:54.894Z,50.70
2019-06-20T12:20:23.546Z,50.40
2019-06-20T12:22:52.319Z,50.50
2019-06-20T12:25:22.958Z,50.10
2019-06-20T12:27:51.644Z,49.80
2019-06-20T12:30:20.880Z,49.70
2019-06-20T12:32:49.635Z,50.10
2019-06-20T12:35:19.774Z,50.20
2019-06-20T12:37:49.777Z,51.20
2019-06-20T12:40:19.075Z,52.90
2019-06-20T12:42:49.239Z,53.90
2019-06-20T12:45:18.429Z,54.70
2019-06-20T12:47:47.196Z,54.90
2019-06-20T12:50:16.760Z,54.60
2019-06-20T12:52:45.880Z,54.60
2019-06-20T12:55:15.732Z,54.70
2019-06-20T12:57:44.384Z,54.70
2019-06-20T13:00:16.510Z,54.70
2019-06-20T13:02:45.527Z,55.00
2019-06-20T13:05:16.617Z,55.10
2019-06-20T13:07:46.411Z,55.30
2019-06-20T13:10:16.262Z,55.10
2019-06-20T13:12:46.163Z,55.20
2019-06-20T13:15:15.213Z,54.80
2019-06-20T13:17:47.027Z,54.90
2019-06-20T13:20:16.022Z,55.20
2019-06-20T13:22:44.869Z,55.30
2019-06-20T13:25:14.188Z,55.60
2019-06-20T13:27:43.401Z,55.00
2019-06-20T13:30:13.395Z,54.70
2019-06-20T13:32:43.843Z,54.40
2019-06-20T13:35:15.765Z,54.40
2019-06-20T13:37:45.737Z,54.40
2019-06-20T13:40:15.932Z,54.00
2019-06-20T13:42:45.957Z,53.80
2019-06-20T13:45:23.410Z,53.90
2019-06-20T13:47:53.811Z,54.10
2019-06-20T13:50:24.409Z,54.00
2019-06-20T13:52:54.746Z,53.80
2019-06-20T13:55:23.526Z,53.50
2019-06-20T13:57:52.033Z,53.00
2019-06-20T14:00:23.896Z,52.70
2019-06-20T14:02:52.526Z,52.70
2019-06-20T14:05:21.224Z,52.90
2019-06-20T14:07:53.440Z,53.50
2019-06-20T14:10:20.594Z,53.10
2019-06-20T14:12:49.271Z,52.90
2019-06-20T14:15:19.547Z,52.70
2019-06-20T14:17:49.854Z,52.70
2019-06-20T14:20:19.814Z,52.20
2019-06-20T14:22:49.418Z,52.00
2019-06-20T14:25:20.013Z,52.20
2019-06-20T14:27:51.718Z,52.20
2019-06-20T14:30:37.884Z,51.90
2019-06-20T14:33:10.203Z,51.80
2019-06-20T14:38:29.178Z,51.50
2019-06-20T14:46:35.650Z,51.90
2019-06-20T14:49:07.523Z,51.80
2019-06-20T14:51:37.912Z,51.70
2019-06-20T14:54:07.086Z,51.50
2019-06-20T14:56:37.359Z,51.00
2019-06-20T14:59:06.070Z,51.50
2019-06-20T17:44:34.826Z,55.20
2019-06-20T17:47:03.502Z,55.00
2019-06-20T17:49:32.340Z,55.70
2019-06-20T17:52:00.937Z,55.90
2019-06-20T17:54:29.494Z,56.10
2019-06-20T17:56:58.421Z,56.20
2019-06-20T17:59:27.441Z,56.50
2019-06-20T18:01:56.114Z,56.40
2019-06-20T18:04:26.768Z,56.60
2019-06-20T18:06:55.136Z,56.30
2019-06-20T18:09:23.740Z,56.30
2019-06-20T18:11:52.433Z,56.30
2019-06-20T18:14:21.018Z,56.40
2019-06-20T18:16:49.640Z,56.30
2019-06-20T18:19:18.274Z,56.30
2019-06-20T18:21:46.977Z,56.40
2019-06-20T18:24:15.548Z,56.50
2019-06-20T18:26:44.439Z,56.60
2019-06-20T18:29:13.104Z,56.70
2019-06-20T18:31:44.939Z,56.80
2019-06-20T18:34:29.114Z,56.50
2019-06-20T18:36:45.692Z,56.40
2019-06-20T18:39:14.353Z,56.40
2019-06-20T18:41:47.417Z,56.70
2019-06-20T18:44:14.945Z,56.40
2019-06-20T18:46:43.726Z,56.10
2019-06-20T18:49:12.562Z,56.10
2019-06-20T18:51:41.302Z,56.00
2019-06-20T18:54:09.776Z,55.90
2019-06-20T18:56:38.343Z,56.10
2019-06-20T18:59:07.083Z,56.20
2019-06-20T19:01:35.624Z,56.40
2019-06-20T19:04:05.286Z,56.40
2019-06-20T19:06:36.328Z,56.50
2019-06-20T19:09:07.862Z,56.40
2019-06-20T19:11:37.910Z,56.50
2019-06-20T19:14:06.673Z,56.60
2019-06-20T19:16:35.210Z,56.90
2019-06-20T19:19:04.957Z,57.20
2019-06-20T19:21:36.851Z,57.40
2019-06-20T19:24:07.826Z,57.60
2019-06-20T19:26:37.248Z,57.60
2019-06-20T19:29:05.920Z,57.90
2019-06-20T19:31:36.039Z,57.80
2019-06-20T19:34:04.679Z,57.90
2019-06-20T19:36:33.252Z,58.20
2019-06-20T19:39:01.960Z,58.30
2019-06-20T19:41:31.897Z,58.40
2019-06-20T19:44:01.383Z,58.70
2019-06-20T19:46:29.922Z,59.70
2019-06-20T19:48:59.555Z,59.10
2019-06-20T19:51:28.158Z,59.20
2019-06-20T19:53:56.822Z,59.30
2019-06-20T19:56:25.522Z,59.20
2019-06-20T19:58:55.604Z,59.00
2019-06-20T20:01:25.431Z,58.80
2019-06-20T20:03:54.090Z,58.60
2019-06-20T20:06:24.523Z,58.30
2019-06-20T20:08:54.869Z,58.40
2019-06-20T20:11:23.452Z,58.50
2019-06-20T20:13:52.080Z,58.30
2019-06-20T20:16:20.703Z,58.20
2019-06-20T20:18:50.848Z,58.00
2019-06-20T20:21:19.653Z,57.90
2019-06-20T20:23:48.288Z,58.10
2019-06-20T20:26:16.774Z,58.00
2019-06-20T20:28:46.515Z,58.20
2019-06-20T20:31:15.341Z,58.40
2019-06-20T20:33:45.440Z,58.70
2019-06-20T20:36:24.558Z,59.10
2019-06-20T20:38:47.256Z,59.90
2019-06-20T20:41:15.930Z,59.40
2019-06-20T20:43:47.580Z,59.70
2019-06-20T20:46:16.312Z,60.00
2019-06-20T20:48:45.208Z,60.10
2019-06-20T20:51:13.830Z,60.40
2019-06-20T20:53:42.585Z,60.50
2019-06-20T20:56:11.286Z,60.60
2019-06-20T20:58:40.216Z,60.70
2019-06-20T21:01:12.920Z,61.00
2019-06-20T21:03:41.495Z,61.20
2019-06-20T21:06:10.198Z,61.80
2019-06-20T21:08:38.903Z,62.10
2019-06-20T21:11:07.546Z,62.50
2019-06-20T21:13:36.119Z,62.50
2019-06-20T21:16:05.041Z,62.60
2019-06-20T21:18:34.986Z,62.90
2019-06-20T21:21:03.600Z,63.00
2019-06-20T21:23:32.258Z,63.20
2019-06-20T21:26:00.858Z,63.50
2019-06-20T21:28:29.463Z,63.90
2019-06-20T21:30:59.660Z,63.80
2019-06-20T21:33:28.166Z,64.00
2019-06-20T21:36:07.899Z,64.10
2019-06-20T21:38:27.779Z,64.60
2019-06-20T21:40:59.463Z,64.40
2019-06-20T21:43:28.078Z,64.70
2019-06-20T21:45:56.788Z,64.80
2019-06-20T21:48:25.346Z,64.80
2019-06-20T21:50:53.964Z,65.00
2019-06-20T21:53:22.607Z,64.80
2019-06-20T21:55:51.294Z,65.00
2019-06-20T21:58:21.260Z,65.00
2019-06-20T22:00:53.107Z,65.10
2019-06-20T22:03:21.770Z,65.20
2019-06-20T22:05:50.349Z,65.30
2019-06-20T22:08:19.148Z,65.30
2019-06-20T22:10:49.490Z,65.70
2019-06-20T22:13:18.185Z,65.60
2019-06-20T22:15:46.863Z,65.50
2019-06-20T22:18:15.429Z,65.50
2019-06-20T22:20:44.147Z,65.30
2019-06-20T22:23:12.743Z,65.50
2019-06-20T22:25:41.367Z,65.80
2019-06-20T22:28:09.953Z,65.80
2019-06-20T22:30:50.289Z,65.70
2019-06-20T22:33:20.397Z,65.50
2019-06-20T22:35:48.940Z,65.30
2019-06-20T22:38:18.179Z,65.60
2019-06-20T22:40:46.963Z,65.80
2019-06-20T22:43:16.878Z,66.10
2019-06-20T22:45:45.679Z,66.00
2019-06-20T22:48:15.132Z,66.20
2019-06-20T22:50:44.002Z,66.20
2019-06-20T22:53:12.750Z,66.10
2019-06-20T22:55:41.406Z,66.00
2019-06-20T22:58:10.016Z,66.40
2019-06-20T23:00:38.761Z,66.40
2019-06-20T23:03:07.429Z,66.40
2019-06-20T23:05:36.225Z,66.30
2019-06-20T23:08:05.039Z,66.20
2019-06-20T23:10:33.743Z,66.60
2019-06-20T23:13:03.311Z,67.60
2019-06-20T23:15:32.104Z,67.00
2019-06-20T23:18:00.661Z,66.90
2019-06-20T23:20:30.267Z,67.10
2019-06-20T23:23:00.151Z,67.10
2019-06-20T23:25:28.834Z,67.20
2019-06-20T23:27:57.664Z,67.30
2019-06-20T23:30:26.440Z,67.10
2019-06-20T23:32:55.033Z,67.30
2019-06-20T23:35:23.596Z,67.30
2019-06-20T23:37:52.203Z,67.40
2019-06-20T23:40:20.988Z,67.70
2019-06-20T23:42:49.700Z,67.90
2019-06-20T23:45:18.809Z,68.10
2019-06-20T23:47:47.518Z,68.10
2019-06-20T23:50:18.678Z,68.10
2019-06-20T23:52:51.168Z,68.40
2019-06-20T23:55:19.908Z,68.50
2019-06-20T23:57:48.525Z,68.50
